Time;durP1;ratioP1;P1;durP2;ratioP2;P2;SDS_P1;SDS_P2;PMS_P1;PMS_P2;Temp;Humidity;BMP_temperature;BMP_pressure;BME280_temperature;BME280_humidity;BME280_pressure;Samples;Min_cycle;Max_cycle;Signal;HPM_P1;HPM_P2
2023/03/26 00:02:06;;;;;;;4.30;1.60;;;11.20;72.90;;;;;;924891;151;27497;-74
2023/03/26 00:04:33;;;;;;;2.90;1.30;;;11.10;72.80;;;;;;909750;153;27461;-73
2023/03/26 00:06:59;;;;;;;2.50;1.23;;;11.10;72.80;;;;;;908779;153;27415;-74
2023/03/26 00:09:26;;;;;;;3.13;1.50;;;11.10;72.90;;;;;;909909;154;27776;-73
2023/03/26 00:11:52;;;;;;;1.70;1.10;;;11.10;73.20;;;;;;924141;151;27454;-73
2023/03/26 00:14:19;;;;;;;4.03;1.23;;;11.10;73.20;;;;;;910213;154;27439;-73
2023/03/26 00:16:46;;;;;;;2.17;1.40;;;11.00;73.30;;;;;;908866;154;27452;-73
2023/03/26 00:19:12;;;;;;;4.33;1.27;;;11.00;73.70;;;;;;911833;153;27411;-74
2023/03/26 00:21:40;;;;;;;3.30;1.50;;;11.00;73.90;;;;;;929078;150;27362;-73
2023/03/26 00:24:05;;;;;;;3.67;1.70;;;11.00;73.80;;;;;;925593;151;27406;-73
2023/03/26 00:26:32;;;;;;;2.13;1.43;;;11.00;74.20;;;;;;908899;154;27354;-73
2023/03/26 00:28:59;;;;;;;3.20;1.40;;;11.00;74.70;;;;;;908677;153;27428;-73
2023/03/26 00:31:25;;;;;;;4.40;1.47;;;11.10;74.40;;;;;;923126;151;27392;-73
2023/03/26 00:33:54;;;;;;;3.50;1.30;;;11.10;74.20;;;;;;909794;153;27477;-73
2023/03/26 00:36:18;;;;;;;2.30;1.50;;;11.10;74.10;;;;;;915444;153;27380;-73
2023/03/26 00:38:45;;;;;;;5.37;1.50;;;11.10;73.90;;;;;;917141;153;27382;-73
2023/03/26 00:41:21;;;;;;;3.83;1.77;;;11.10;73.90;;;;;;908715;154;27437;-73
2023/03/26 00:43:44;;;;;;;3.83;1.40;;;11.10;73.80;;;;;;916687;153;27400;-74
2023/03/26 00:46:10;;;;;;;3.13;1.40;;;11.10;73.80;;;;;;909113;154;27387;-73
2023/03/26 00:48:37;;;;;;;3.67;1.53;;;11.10;74.20;;;;;;924519;151;27351;-73
2023/03/26 00:51:03;;;;;;;2.87;1.50;;;11.00;73.90;;;;;;924721;151;27505;-73
2023/03/26 00:53:30;;;;;;;6.00;2.33;;;11.10;74.10;;;;;;904891;154;27478;-73
2023/03/26 00:55:59;;;;;;;3.07;1.20;;;11.00;74.10;;;;;;921508;150;27284;-73
2023/03/26 00:58:23;;;;;;;4.50;1.63;;;11.00;74.20;;;;;;923657;151;27338;-74
2023/03/26 01:00:49;;;;;;;3.33;1.43;;;11.00;74.30;;;;;;938217;148;27372;-74
2023/03/26 01:03:17;;;;;;;2.93;1.43;;;10.90;74.40;;;;;;925004;150;27378;-73
2023/03/26 01:05:44;;;;;;;4.53;1.70;;;10.90;74.40;;;;;;924695;151;27303;-74
2023/03/26 01:08:14;;;;;;;4.00;1.80;;;10.90;74.50;;;;;;938536;148;27450;-74
2023/03/26 01:10:37;;;;;;;4.33;1.80;;;10.90;74.60;;;;;;924833;151;27376;-74
2023/03/26 01:13:02;;;;;;;3.83;1.43;;;10.90;74.70;;;;;;905017;154;27518;-74
2023/03/26 01:15:29;;;;;;;2.83;1.53;;;10.80;74.70;;;;;;919109;152;27962;-73
2023/03/26 01:17:57;;;;;;;4.43;1.83;;;10.80;74.80;;;;;;904450;155;27386;-74
2023/03/26 01:20:25;;;;;;;5.40;1.63;;;10.80;74.90;;;;;;905524;154;27409;-74
2023/03/26 01:22:50;;;;;;;4.80;1.50;;;10.70;75.00;;;;;;916735;152;27434;-73
2023/03/26 01:25:15;;;;;;;3.83;1.33;;;10.70;75.00;;;;;;919692;152;27395;-74
2023/03/26 01:27:42;;;;;;;3.57;1.70;;;10.70;75.00;;;;;;904828;154;27540;-74
2023/03/26 01:30:09;;;;;;;4.10;1.60;;;10.70;75.00;;;;;;919631;152;27329;-74
2023/03/26 01:32:56;;;;;;;3.30;1.67;;;10.70;75.20;;;;;;923887;151;27415;-74
2023/03/26 01:35:29;;;;;;;3.40;1.37;;;10.60;75.20;;;;;;925759;149;27303;-74
2023/03/26 01:38:10;;;;;;;2.40;1.40;;;10.60;75.20;;;;;;940603;148;27371;-74
2023/03/26 01:40:41;;;;;;;3.80;1.63;;;10.60;75.30;;;;;;926940;151;27396;-74
2023/03/26 01:43:03;;;;;;;7.20;1.77;;;10.50;75.10;;;;;;917561;151;27442;-74
2023/03/26 01:45:30;;;;;;;4.77;1.77;;;10.50;75.30;;;;;;919932;150;27348;-74
2023/03/26 01:47:56;;;;;;;5.57;1.83;;;10.50;75.60;;;;;;912444;154;27420;-74
2023/03/26 01:50:23;;;;;;;6.97;1.60;;;10.50;75.70;;;;;;902346;154;27519;-74
2023/03/26 01:52:50;;;;;;;3.30;1.90;;;10.50;75.60;;;;;;923184;151;27380;-74
2023/03/26 01:55:16;;;;;;;5.60;1.60;;;10.40;75.70;;;;;;940121;148;27346;-74
2023/03/26 01:57:48;;;;;;;4.83;1.60;;;10.40;75.80;;;;;;925958;151;27405;-74
2023/03/26 02:00:19;;;;;;;4.60;1.80;;;10.40;76.00;;;;;;911419;154;27400;-74
2023/03/26 02:02:57;;;;;;;4.10;1.73;;;10.40;76.00;;;;;;902339;155;27977;-74
2023/03/26 02:05:29;;;;;;;4.67;1.60;;;10.40;76.20;;;;;;920586;152;27389;-74
2023/03/26 02:08:05;;;;;;;4.40;1.60;;;10.30;76.50;;;;;;911150;152;27473;-74
2023/03/26 02:10:31;;;;;;;5.13;1.60;;;10.30;76.30;;;;;;919182;152;27391;-74
2023/03/26 02:12:58;;;;;;;4.17;1.83;;;10.30;76.10;;;;;;911422;154;27358;-74
2023/03/26 02:15:25;;;;;;;4.50;1.73;;;10.20;76.20;;;;;;903162;153;27379;-74
2023/03/26 02:17:52;;;;;;;3.67;1.63;;;10.20;76.40;;;;;;904410;154;27389;-74
2023/03/26 02:20:18;;;;;;;7.53;1.80;;;10.20;76.50;;;;;;918967;152;27476;-74
2023/03/26 02:22:47;;;;;;;5.77;1.90;;;10.20;76.70;;;;;;917815;152;27400;-73
2023/03/26 02:25:14;;;;;;;4.40;1.73;;;10.20;76.80;;;;;;923095;151;27436;-74
2023/03/26 02:27:40;;;;;;;4.00;1.43;;;10.10;76.90;;;;;;917469;152;27293;-74
2023/03/26 02:30:07;;;;;;;3.20;1.60;;;10.10;77.30;;;;;;906013;153;27362;-74
2023/03/26 02:32:34;;;;;;;2.10;1.40;;;10.10;77.30;;;;;;904567;154;27417;-74
2023/03/26 02:35:00;;;;;;;7.17;2.17;;;10.10;77.50;;;;;;902738;155;27485;-74
2023/03/26 02:37:29;;;;;;;3.53;1.80;;;10.10;77.70;;;;;;920717;152;27678;-78
2023/03/26 02:39:54;;;;;;;4.57;1.73;;;10.10;77.60;;;;;;904262;154;27372;-78
2023/03/26 02:42:20;;;;;;;4.37;1.80;;;10.10;77.90;;;;;;920437;150;27324;-79
2023/03/26 02:44:47;;;;;;;3.33;1.53;;;10.00;77.90;;;;;;918779;152;27391;-79
2023/03/26 02:47:13;;;;;;;4.40;1.50;;;10.00;77.90;;;;;;922890;151;27360;-78
2023/03/26 02:49:40;;;;;;;4.07;1.77;;;10.00;78.10;;;;;;939574;148;27336;-78
2023/03/26 02:52:06;;;;;;;3.17;1.60;;;10.00;78.20;;;;;;937134;148;27262;-79
2023/03/26 02:54:33;;;;;;;4.37;1.50;;;10.00;78.40;;;;;;927480;150;27453;-78
2023/03/26 02:57:00;;;;;;;6.50;2.40;;;10.00;78.70;;;;;;912605;153;27440;-78
2023/03/26 02:59:26;;;;;;;3.23;1.50;;;10.00;78.90;;;;;;917838;153;27363;-79
2023/03/26 03:01:53;;;;;;;4.07;1.67;;;10.10;78.70;;;;;;909695;153;27383;-78
2023/03/26 03:04:20;;;;;;;5.37;1.40;;;10.10;79.20;;;;;;908780;153;27385;-79
2023/03/26 03:06:46;;;;;;;4.97;1.63;;;10.10;79.50;;;;;;909473;153;27408;-78
2023/03/26 03:09:13;;;;;;;5.67;1.93;;;10.20;79.80;;;;;;911230;153;27480;-74
2023/03/26 03:11:39;;;;;;;4.83;1.50;;;10.20;79.80;;;;;;926311;151;27355;-74
2023/03/26 03:14:06;;;;;;;3.43;1.93;;;10.30;79.80;;;;;;910071;153;27447;-73
2023/03/26 03:16:32;;;;;;;6.63;2.00;;;10.40;79.80;;;;;;926862;151;27399;-73
2023/03/26 03:19:00;;;;;;;5.43;1.83;;;10.40;79.80;;;;;;922219;151;27419;-74
2023/03/26 03:21:25;;;;;;;5.37;2.20;;;10.40;79.70;;;;;;922654;151;27416;-74
2023/03/26 03:23:55;;;;;;;4.50;2.00;;;10.50;79.40;;;;;;921545;151;27448;-74
2023/03/26 03:26:21;;;;;;;8.27;2.03;;;10.60;78.70;;;;;;909228;153;27349;-74
2023/03/26 03:28:48;;;;;;;4.00;1.97;;;10.60;79.40;;;;;;911594;153;27518;-74
2023/03/26 03:31:15;;;;;;;5.07;1.90;;;10.70;79.70;;;;;;918416;153;27396;-74
2023/03/26 03:33:41;;;;;;;4.97;1.90;;;10.70;79.40;;;;;;910385;153;27497;-74
2023/03/26 03:36:09;;;;;;;6.80;2.53;;;10.70;79.10;;;;;;922761;151;27348;-74
2023/03/26 03:38:34;;;;;;;2.50;1.50;;;10.80;79.10;;;;;;923626;154;27403;-74
2023/03/26 03:41:01;;;;;;;3.80;1.70;;;10.80;79.10;;;;;;925240;154;27500;-74
2023/03/26 03:43:28;;;;;;;6.23;2.03;;;10.80;79.00;;;;;;923028;153;27403;-74
2023/03/26 03:45:54;;;;;;;7.67;2.03;;;10.80;79.10;;;;;;923444;151;27440;-74
2023/03/26 03:48:21;;;;;;;2.93;1.57;;;10.90;79.20;;;;;;922038;152;27405;-74
2023/03/26 03:50:47;;;;;;;4.23;1.70;;;10.80;79.10;;;;;;926022;151;27507;-74
2023/03/26 03:53:14;;;;;;;5.57;2.30;;;10.90;79.20;;;;;;911587;153;27335;-74
2023/03/26 03:55:51;;;;;;;3.03;1.67;;;10.90;79.20;;;;;;909207;153;27365;-74
2023/03/26 03:58:10;;;;;;;6.10;1.80;;;10.90;79.20;;;;;;909790;153;27362;-74
2023/03/26 04:00:40;;;;;;;6.97;2.07;;;10.90;79.40;;;;;;908229;153;27449;-74
2023/03/26 04:03:05;;;;;;;2.80;1.63;;;10.90;79.70;;;;;;908817;153;27453;-74
2023/03/26 04:05:30;;;;;;;6.33;2.30;;;11.00;79.80;;;;;;918037;153;27484;-74
2023/03/26 04:07:58;;;;;;;8.00;2.47;;;11.00;79.90;;;;;;911047;153;27325;-74
2023/03/26 04:10:23;;;;;;;6.77;1.87;;;11.00;80.30;;;;;;918338;153;27377;-74
2023/03/26 04:12:50;;;;;;;7.00;1.80;;;11.00;80.30;;;;;;908714;153;27503;-74
2023/03/26 04:15:16;;;;;;;4.97;1.90;;;11.10;80.30;;;;;;927574;151;27460;-74
2023/03/26 04:17:43;;;;;;;5.87;2.10;;;11.10;80.40;;;;;;926165;151;27345;-74
2023/03/26 04:20:13;;;;;;;6.57;2.10;;;11.10;80.70;;;;;;909546;153;27378;-74
2023/03/26 04:22:36;;;;;;;5.23;2.27;;;11.10;80.70;;;;;;925146;151;27479;-74
2023/03/26 04:25:04;;;;;;;4.23;1.93;;;11.10;80.70;;;;;;925188;151;27387;-74
2023/03/26 04:27:30;;;;;;;4.87;2.00;;;11.10;80.70;;;;;;926447;151;27384;-74
2023/03/26 04:29:57;;;;;;;4.50;2.47;;;11.20;81.00;;;;;;926216;151;27322;-74
2023/03/26 04:32:32;;;;;;;5.07;1.97;;;11.20;81.10;;;;;;911533;153;27535;-74
2023/03/26 04:34:54;;;;;;;6.67;2.17;;;11.20;81.30;;;;;;924675;151;27435;-74
2023/03/26 04:37:26;;;;;;;9.73;2.07;;;11.20;81.20;;;;;;928184;151;27406;-74
2023/03/26 04:39:53;;;;;;;5.30;1.83;;;11.20;81.30;;;;;;918255;153;27411;-74
2023/03/26 04:42:19;;;;;;;7.90;2.13;;;11.20;81.40;;;;;;910068;153;27441;-74
2023/03/26 04:44:49;;;;;;;4.97;1.80;;;11.20;82.20;;;;;;924572;150;27382;-74
2023/03/26 04:47:12;;;;;;;6.87;1.73;;;11.10;81.60;;;;;;926988;151;27385;-74
2023/03/26 04:49:40;;;;;;;4.43;1.60;;;11.20;81.60;;;;;;927262;151;27363;-74
2023/03/26 04:52:06;;;;;;;3.93;1.93;;;11.10;81.60;;;;;;926195;151;27460;-74
2023/03/26 04:54:32;;;;;;;3.50;1.70;;;11.10;81.60;;;;;;912241;153;27894;-74
2023/03/26 04:56:59;;;;;;;4.60;1.70;;;11.10;81.60;;;;;;909222;153;27507;-74
2023/03/26 04:59:29;;;;;;;3.20;1.80;;;11.10;81.70;;;;;;925323;151;27343;-74
2023/03/26 05:01:52;;;;;;;6.30;1.97;;;11.00;81.70;;;;;;910641;153;27370;-74
2023/03/26 05:04:19;;;;;;;6.67;2.07;;;11.00;81.70;;;;;;926470;150;27777;-74
2023/03/26 05:06:45;;;;;;;6.60;2.00;;;10.90;81.80;;;;;;926282;151;27384;-74
2023/03/26 05:09:13;;;;;;;5.50;2.00;;;10.90;81.90;;;;;;926961;151;27388;-74
2023/03/26 05:11:38;;;;;;;5.57;2.37;;;10.90;82.20;;;;;;923701;151;27959;-74
2023/03/26 05:14:05;;;;;;;4.83;1.80;;;10.80;82.20;;;;;;909175;153;27442;-74
2023/03/26 05:16:32;;;;;;;4.40;1.70;;;10.80;82.40;;;;;;927783;151;27510;-74
2023/03/26 05:18:58;;;;;;;6.40;2.00;;;10.70;82.50;;;;;;926015;151;27344;-74
2023/03/26 05:21:25;;;;;;;5.37;1.63;;;10.70;82.70;;;;;;912202;153;27316;-74
2023/03/26 05:23:51;;;;;;;6.07;2.13;;;10.60;82.80;;;;;;926293;151;27856;-74
2023/03/26 05:26:18;;;;;;;3.73;1.83;;;10.60;83.00;;;;;;911540;153;27424;-74
2023/03/26 05:28:44;;;;;;;5.03;1.83;;;10.60;83.30;;;;;;924558;151;27407;-74
2023/03/26 05:31:11;;;;;;;2.90;1.63;;;10.60;83.60;;;;;;927899;150;27427;-74
2023/03/26 05:33:38;;;;;;;2.60;1.93;;;10.60;83.90;;;;;;909268;153;27483;-74
2023/03/26 05:36:04;;;;;;;5.77;2.37;;;10.50;84.00;;;;;;925465;151;27468;-74
2023/03/26 05:38:31;;;;;;;3.40;2.13;;;10.50;84.20;;;;;;918778;153;27411;-74
2023/03/26 05:41:00;;;;;;;2.50;1.43;;;10.50;84.50;;;;;;909635;153;27337;-74
2023/03/26 05:43:27;;;;;;;5.53;2.03;;;10.60;84.80;;;;;;911221;153;27408;-74
2023/03/26 05:45:53;;;;;;;4.07;2.13;;;10.60;85.00;;;;;;911111;153;27425;-74
2023/03/26 05:48:20;;;;;;;6.23;2.17;;;10.60;85.30;;;;;;926888;151;27482;-74
2023/03/26 05:50:49;;;;;;;5.20;1.97;;;10.60;85.40;;;;;;910922;153;27468;-74
2023/03/26 05:53:17;;;;;;;5.63;2.10;;;10.60;85.30;;;;;;914681;153;27466;-74
2023/03/26 05:55:44;;;;;;;5.33;1.97;;;10.70;85.50;;;;;;907941;153;27417;-74
2023/03/26 05:58:09;;;;;;;3.30;2.27;;;10.70;85.60;;;;;;903256;155;27445;-74
2023/03/26 06:00:37;;;;;;;6.30;2.07;;;10.70;85.60;;;;;;905695;154;27407;-74
2023/03/26 06:03:02;;;;;;;3.83;1.90;;;10.80;85.60;;;;;;921074;151;27427;-74
2023/03/26 06:05:31;;;;;;;4.70;2.00;;;10.80;85.60;;;;;;917598;150;27405;-74
2023/03/26 06:07:55;;;;;;;5.60;2.27;;;10.90;85.60;;;;;;918307;152;27449;-74
2023/03/26 06:10:22;;;;;;;5.17;2.00;;;10.90;85.60;;;;;;918193;152;27404;-74
2023/03/26 06:12:49;;;;;;;4.80;2.07;;;10.90;85.60;;;;;;919313;152;27502;-74
2023/03/26 06:15:15;;;;;;;4.47;2.27;;;10.90;85.50;;;;;;903611;155;27370;-74
2023/03/26 06:17:42;;;;;;;6.73;2.07;;;11.00;85.80;;;;;;905638;154;27355;-74
2023/03/26 06:20:08;;;;;;;4.13;1.70;;;11.00;85.70;;;;;;917710;150;27498;-74
2023/03/26 06:22:35;;;;;;;4.03;2.20;;;11.00;85.60;;;;;;902533;155;27422;-74
2023/03/26 06:25:02;;;;;;;4.03;2.03;;;11.10;85.70;;;;;;904296;154;27439;-74
2023/03/26 06:27:28;;;;;;;7.00;2.00;;;11.10;85.70;;;;;;903115;155;27432;-74
2023/03/26 06:29:55;;;;;;;4.67;2.33;;;11.10;85.80;;;;;;911675;154;27699;-74
2023/03/26 06:32:21;;;;;;;3.87;1.70;;;11.20;85.70;;;;;;918547;152;27492;-73
2023/03/26 06:34:48;;;;;;;3.80;2.23;;;11.20;85.80;;;;;;901240;155;27462;-73
2023/03/26 06:37:15;;;;;;;5.20;2.03;;;11.20;86.00;;;;;;903542;154;27382;-74
2023/03/26 06:39:41;;;;;;;3.97;1.97;;;11.30;85.90;;;;;;903494;155;27399;-74
2023/03/26 06:42:08;;;;;;;5.87;2.40;;;11.30;85.80;;;;;;906596;153;27464;-73
2023/03/26 06:44:34;;;;;;;6.13;2.37;;;11.30;85.80;;;;;;900974;155;27517;-74
2023/03/26 06:47:01;;;;;;;4.27;2.10;;;11.40;85.80;;;;;;903413;153;27333;-74
2023/03/26 06:49:28;;;;;;;5.57;2.07;;;11.40;85.60;;;;;;911458;154;27486;-74
2023/03/26 06:51:54;;;;;;;5.83;2.50;;;11.40;85.70;;;;;;902895;155;27370;-74
2023/03/26 06:54:21;;;;;;;5.40;2.50;;;11.50;85.80;;;;;;904275;154;27461;-74
2023/03/26 06:56:47;;;;;;;7.53;2.00;;;11.50;85.80;;;;;;907073;153;27567;-73
2023/03/26 06:59:14;;;;;;;6.20;2.00;;;11.60;85.80;;;;;;910228;153;27411;-74
2023/03/26 07:01:40;;;;;;;4.80;2.10;;;11.60;85.60;;;;;;912550;153;27421;-74
2023/03/26 07:04:07;;;;;;;6.57;2.40;;;11.70;85.60;;;;;;927069;151;27366;-73
2023/03/26 07:06:34;;;;;;;7.00;2.23;;;11.70;85.80;;;;;;926257;151;27479;-74
2023/03/26 07:09:00;;;;;;;4.60;2.10;;;11.80;85.90;;;;;;910881;153;27543;-74
2023/03/26 07:11:28;;;;;;;7.27;2.03;;;11.80;85.80;;;;;;924839;151;27334;-73
2023/03/26 07:13:55;;;;;;;3.93;1.90;;;11.90;85.80;;;;;;925777;151;27365;-74
2023/03/26 07:16:21;;;;;;;6.43;2.00;;;12.00;85.70;;;;;;928767;150;27366;-73
2023/03/26 07:18:47;;;;;;;3.23;1.73;;;12.00;85.60;;;;;;912268;153;27434;-74
2023/03/26 07:21:14;;;;;;;4.83;2.27;;;12.10;85.50;;;;;;910316;153;27332;-74
2023/03/26 07:23:41;;;;;;;4.77;2.27;;;12.10;85.40;;;;;;927461;151;27491;-74
2023/03/26 07:26:23;;;;;;;4.43;1.93;;;12.20;85.60;;;;;;927218;151;27288;-74
2023/03/26 07:28:55;;;;;;;5.70;2.70;;;12.20;85.50;;;;;;908365;153;27913;-74
2023/03/26 07:31:25;;;;;;;4.23;2.10;;;12.20;85.30;;;;;;910803;153;27426;-74
2023/03/26 07:33:54;;;;;;;4.57;1.90;;;12.30;85.30;;;;;;925073;150;27535;-74
2023/03/26 07:36:29;;;;;;;7.03;2.37;;;12.20;85.00;;;;;;927775;150;27461;-74
2023/03/26 07:39:04;;;;;;;6.27;1.90;;;12.20;84.70;;;;;;928521;150;27318;-74
2023/03/26 07:41:49;;;;;;;4.57;2.10;;;12.20;84.80;;;;;;909484;153;27497;-74
2023/03/26 07:44:36;;;;;;;4.57;2.10;;;12.20;85.60;;;;;;913596;151;27486;-74
2023/03/26 07:47:03;;;;;;;4.70;1.87;;;12.20;85.30;;;;;;930095;150;27335;-75
2023/03/26 07:49:30;;;;;;;3.93;2.03;;;12.10;85.70;;;;;;926562;151;27540;-75
2023/03/26 07:51:56;;;;;;;4.33;1.77;;;12.10;86.40;;;;;;910146;153;27481;-75
2023/03/26 07:54:23;;;;;;;9.17;3.17;;;12.10;86.80;;;;;;926805;151;27374;-74
2023/03/26 07:56:55;;;;;;;6.57;2.07;;;12.10;87.00;;;;;;912228;153;27521;-74
2023/03/26 07:59:31;;;;;;;3.33;1.83;;;12.10;87.20;;;;;;926806;150;27362;-75
2023/03/26 08:02:09;;;;;;;7.07;2.03;;;12.10;87.40;;;;;;946840;147;27384;-75
2023/03/26 08:04:39;;;;;;;6.93;2.50;;;12.10;87.50;;;;;;949407;147;27378;-74
2023/03/26 08:07:09;;;;;;;6.73;2.37;;;12.10;87.70;;;;;;947131;147;27421;-74
2023/03/26 08:09:35;;;;;;;4.13;1.97;;;12.00;88.00;;;;;;945821;147;27479;-73
2023/03/26 08:12:29;;;;;;;4.17;1.90;;;12.00;88.20;;;;;;939583;147;27416;-74
2023/03/26 08:15:20;;;;;;;4.30;1.83;;;12.00;88.60;;;;;;945840;147;27376;-74
2023/03/26 08:17:53;;;;;;;4.27;2.20;;;12.00;88.30;;;;;;948628;147;27363;-74
2023/03/26 08:20:29;;;;;;;3.17;1.93;;;11.90;88.30;;;;;;946864;147;27797;-74
2023/03/26 08:22:55;;;;;;;5.67;2.37;;;11.90;89.00;;;;;;947534;147;27372;-74
2023/03/26 08:25:33;;;;;;;4.77;2.00;;;11.80;89.50;;;;;;947239;147;27795;-74
2023/03/26 08:28:03;;;;;;;5.83;2.37;;;11.80;90.00;;;;;;946529;147;27350;-74
2023/03/26 08:30:30;;;;;;;5.13;1.97;;;11.80;90.10;;;;;;946850;147;27389;-74
2023/03/26 08:33:02;;;;;;;5.33;2.00;;;11.70;90.50;;;;;;947240;147;27356;-74
2023/03/26 08:35:28;;;;;;;6.93;2.07;;;11.70;90.80;;;;;;940931;147;27324;-74
2023/03/26 08:37:55;;;;;;;3.63;2.33;;;11.70;90.90;;;;;;947698;147;27420;-74
2023/03/26 08:40:43;;;;;;;4.00;1.70;;;11.70;90.90;;;;;;947825;147;27355;-74
2023/03/26 08:43:12;;;;;;;4.63;2.00;;;11.70;91.00;;;;;;944621;147;27301;-74
2023/03/26 08:45:50;;;;;;;5.23;2.00;;;11.60;91.10;;;;;;944211;147;27831;-74
2023/03/26 08:48:45;;;;;;;3.40;1.80;;;11.60;91.20;;;;;;945028;147;27456;-74
2023/03/26 08:51:17;;;;;;;3.43;2.27;;;11.60;91.70;;;;;;945397;147;27368;-74
2023/03/26 08:54:05;;;;;;;5.10;2.20;;;11.60;91.90;;;;;;946537;147;27309;-74
2023/03/26 08:56:49;;;;;;;6.90;2.17;;;11.60;92.30;;;;;;946137;147;27451;-78
2023/03/26 08:59:27;;;;;;;3.57;2.13;;;11.60;92.20;;;;;;938450;147;27345;-74
2023/03/26 09:02:21;;;;;;;4.00;2.33;;;11.60;92.40;;;;;;937877;148;28266;-75
2023/03/26 09:05:09;;;;;;;4.20;2.17;;;11.60;92.70;;;;;;921263;151;27446;-75
2023/03/26 09:08:03;;;;;;;4.50;2.17;;;11.60;92.90;;;;;;939610;148;27339;-75
2023/03/26 09:10:41;;;;;;;5.00;2.50;;;11.60;93.00;;;;;;936994;147;27324;-75
2023/03/26 09:13:45;;;;;;;4.47;2.50;;;11.50;93.00;;;;;;940019;148;27497;-74
2023/03/26 09:16:26;;;;;;;3.63;2.20;;;11.50;93.20;;;;;;938679;148;27345;-75
2023/03/26 09:19:23;;;;;;;5.70;2.37;;;11.50;93.00;;;;;;937928;148;27370;-75
2023/03/26 09:21:52;;;;;;;4.50;2.23;;;11.50;93.30;;;;;;938868;148;27503;-75
2023/03/26 09:24:37;;;;;;;4.07;2.30;;;11.50;93.60;;;;;;937528;148;27451;-74
2023/03/26 09:27:15;;;;;;;6.10;2.13;;;11.50;94.00;;;;;;938794;148;27361;-75
2023/03/26 09:30:12;;;;;;;4.23;2.10;;;11.50;94.20;;;;;;937945;148;27442;-75
2023/03/26 09:32:50;;;;;;;3.77;2.10;;;11.50;94.50;;;;;;937599;148;28109;-75
2023/03/26 09:35:44;;;;;;;4.37;2.50;;;11.60;94.50;;;;;;917290;148;27328;-75
2023/03/26 09:38:16;;;;;;;5.10;2.13;;;11.60;95.10;;;;;;939275;148;27353;-75
2023/03/26 09:40:46;;;;;;;4.57;2.30;;;11.70;95.20;;;;;;930428;148;27448;-74
2023/03/26 09:43:35;;;;;;;4.93;3.27;;;11.70;95.60;;;;;;937374;148;27401;-75
2023/03/26 09:46:12;;;;;;;5.77;2.33;;;11.80;95.90;;;;;;919787;151;27413;-75
2023/03/26 09:49:04;;;;;;;3.23;2.10;;;11.80;95.80;;;;;;938255;148;27392;-75
2023/03/26 09:51:33;;;;;;;5.03;1.77;;;11.90;95.80;;;;;;940918;148;27377;-75
2023/03/26 09:54:02;;;;;;;3.03;2.03;;;11.90;95.60;;;;;;936826;148;27430;-75
2023/03/26 09:56:48;;;;;;;4.23;1.90;;;11.90;95.60;;;;;;938901;148;27381;-75
2023/03/26 09:59:35;;;;;;;4.57;1.70;;;11.90;95.40;;;;;;939241;148;27373;-75
2023/03/26 10:02:19;;;;;;;2.47;1.27;;;12.00;95.20;;;;;;942070;148;27345;-75
2023/03/26 10:04:46;;;;;;;2.50;1.33;;;12.00;94.90;;;;;;940085;148;27919;-75
2023/03/26 10:07:37;;;;;;;2.77;1.40;;;12.00;94.90;;;;;;938783;148;27366;-74
2023/03/26 10:10:34;;;;;;;5.97;1.77;;;12.00;94.90;;;;;;939035;148;28078;-75
2023/03/26 10:13:09;;;;;;;3.03;1.23;;;12.00;94.90;;;;;;937972;148;27405;-75
2023/03/26 10:15:47;;;;;;;2.13;1.47;;;12.00;95.50;;;;;;939574;148;27786;-74
2023/03/26 10:18:20;;;;;;;2.40;1.40;;;12.10;95.70;;;;;;940671;148;27373;-74
2023/03/26 10:21:11;;;;;;;2.37;1.50;;;12.10;95.70;;;;;;937396;148;27404;-75
2023/03/26 10:23:44;;;;;;;3.70;1.20;;;12.20;95.80;;;;;;941602;148;27836;-75
2023/03/26 10:26:32;;;;;;;3.57;1.43;;;12.30;95.60;;;;;;938757;148;27888;-75
2023/03/26 10:29:07;;;;;;;3.00;1.20;;;12.30;95.30;;;;;;937652;148;27348;-75
2023/03/26 10:31:58;;;;;;;1.90;1.27;;;12.40;94.90;;;;;;936793;148;27297;-75
2023/03/26 10:34:43;;;;;;;2.40;1.27;;;12.40;94.90;;;;;;941160;148;27383;-75
2023/03/26 10:37:15;;;;;;;4.50;1.33;;;12.50;94.60;;;;;;940447;148;27389;-74
2023/03/26 10:39:45;;;;;;;1.97;1.23;;;12.60;95.50;;;;;;943787;148;27328;-74
2023/03/26 10:42:11;;;;;;;1.53;1.40;;;12.70;96.40;;;;;;937674;148;27342;-74
2023/03/26 10:44:53;;;;;;;2.40;1.10;;;12.80;97.50;;;;;;939460;148;27374;-74
2023/03/26 10:47:31;;;;;;;1.10;0.85;;;13.10;98.20;;;;;;939103;148;27377;-75
2023/03/26 10:50:09;;;;;;;2.72;1.40;;;13.40;98.50;;;;;;934925;148;27248;-74
2023/03/26 10:52:51;;;;;;;2.90;1.02;;;13.80;98.40;;;;;;940820;148;27330;-75
2023/03/26 10:55:21;;;;;;;1.12;0.85;;;14.10;97.90;;;;;;938933;148;27465;-74
2023/03/26 10:57:56;;;;;;;1.20;0.95;;;14.50;96.60;;;;;;935020;148;27339;-74
2023/03/26 11:00:25;;;;;;;1.22;0.90;;;14.80;95.60;;;;;;928917;148;27470;-74
2023/03/26 11:03:07;;;;;;;1.62;0.80;;;15.10;94.50;;;;;;933387;148;27452;-75
2023/03/26 11:05:40;;;;;;;1.67;0.95;;;15.30;93.60;;;;;;918230;150;27888;-75
2023/03/26 11:08:06;;;;;;;3.08;0.85;;;15.50;92.80;;;;;;918189;150;27378;-75
2023/03/26 11:10:54;;;;;;;1.25;0.98;;;15.70;92.10;;;;;;920653;150;27328;-75
2023/03/26 11:13:58;;;;;;;0.90;0.62;;;15.80;91.60;;;;;;920062;150;27308;-75
2023/03/26 11:16:33;;;;;;;0.72;0.72;;;16.00;90.90;;;;;;917459;150;27317;-75
2023/03/26 11:19:21;;;;;;;2.33;0.80;;;16.10;90.00;;;;;;919811;150;27326;-75
2023/03/26 11:21:50;;;;;;;2.58;1.25;;;16.20;88.90;;;;;;923032;148;27436;-75
2023/03/26 11:24:35;;;;;;;1.00;0.70;;;16.20;87.10;;;;;;921250;150;27499;-75
2023/03/26 11:27:17;;;;;;;1.00;0.80;;;16.30;86.30;;;;;;888153;157;27490;-74
2023/03/26 11:29:55;;;;;;;2.58;1.15;;;16.30;86.20;;;;;;911537;150;27330;-75
2023/03/26 11:32:22;;;;;;;2.58;1.22;;;16.40;86.00;;;;;;910602;150;27343;-74
2023/03/26 11:35:01;;;;;;;0.60;0.60;;;16.50;85.70;;;;;;918412;148;27464;-75
2023/03/26 11:37:32;;;;;;;1.35;0.93;;;16.50;85.00;;;;;;921281;148;27323;-75
2023/03/26 11:39:59;;;;;;;1.37;0.62;;;16.60;83.90;;;;;;919887;149;27444;-74
2023/03/26 11:42:26;;;;;;;1.60;1.20;;;16.60;82.70;;;;;;921195;150;27439;-74
2023/03/26 11:44:55;;;;;;;1.65;0.80;;;16.60;81.20;;;;;;919785;150;27381;-74
2023/03/26 11:47:37;;;;;;;1.27;0.80;;;16.60;80.00;;;;;;917512;150;27403;-75
2023/03/26 11:50:04;;;;;;;1.00;0.90;;;16.50;79.40;;;;;;890739;157;27406;-74
2023/03/26 11:52:30;;;;;;;1.95;0.80;;;16.40;79.40;;;;;;910603;150;27344;-74
2023/03/26 11:54:58;;;;;;;1.85;0.93;;;16.30;79.20;;;;;;920703;150;27291;-74
2023/03/26 11:57:26;;;;;;;2.22;0.80;;;16.20;79.10;;;;;;919151;150;27395;-74
2023/03/26 12:00:06;;;;;;;1.32;0.90;;;16.00;79.30;;;;;;920243;150;27367;-74
2023/03/26 12:02:35;;;;;;;2.12;0.90;;;15.90;79.90;;;;;;926889;149;27364;-74
2023/03/26 12:05:10;;;;;;;3.17;1.47;;;15.80;80.60;;;;;;926647;149;27507;-74
2023/03/26 12:07:36;;;;;;;1.12;1.07;;;15.70;80.10;;;;;;926463;149;27387;-74
2023/03/26 12:10:02;;;;;;;2.10;1.45;;;15.60;81.40;;;;;;927369;149;27354;-74
2023/03/26 12:12:29;;;;;;;1.37;1.22;;;15.50;82.00;;;;;;927443;149;27372;-74
2023/03/26 12:14:55;;;;;;;1.67;0.90;;;15.30;82.50;;;;;;929367;149;27459;-74
2023/03/26 12:17:24;;;;;;;1.17;0.90;;;15.20;83.40;;;;;;927925;149;27383;-74
2023/03/26 12:19:51;;;;;;;1.65;1.02;;;15.10;84.20;;;;;;926132;149;27446;-74
2023/03/26 12:22:29;;;;;;;2.73;1.00;;;15.10;84.60;;;;;;926237;149;27328;-74
2023/03/26 12:24:53;;;;;;;1.52;1.12;;;15.00;84.40;;;;;;926844;149;27433;-74
2023/03/26 12:27:20;;;;;;;3.25;1.32;;;14.90;84.50;;;;;;927178;149;27469;-74
2023/03/26 12:29:49;;;;;;;1.17;1.00;;;14.80;84.70;;;;;;928009;149;27332;-74
2023/03/26 12:32:16;;;;;;;3.90;1.30;;;14.70;84.70;;;;;;928165;149;27348;-74
2023/03/26 12:34:42;;;;;;;1.50;1.30;;;14.60;84.60;;;;;;926863;149;27364;-74
2023/03/26 12:37:09;;;;;;;1.27;1.17;;;14.40;84.90;;;;;;927765;149;27938;-74
2023/03/26 12:39:37;;;;;;;3.52;3.22;;;14.20;85.00;;;;;;927155;149;27442;-74
2023/03/26 12:42:04;;;;;;;2.40;1.70;;;14.10;86.00;;;;;;926568;149;27286;-73
2023/03/26 12:44:35;;;;;;;3.13;2.83;;;13.90;86.40;;;;;;927054;149;27937;-74
2023/03/26 12:47:16;;;;;;;1.47;1.37;;;13.80;87.50;;;;;;927333;149;27374;-74
2023/03/26 12:49:43;;;;;;;3.13;1.63;;;13.70;88.60;;;;;;927566;149;27400;-74
2023/03/26 12:52:40;;;;;;;1.67;1.30;;;13.60;90.10;;;;;;926934;149;27436;-74
2023/03/26 12:55:31;;;;;;;2.02;1.10;;;13.60;91.40;;;;;;927046;149;27379;-74
2023/03/26 12:58:19;;;;;;;1.45;1.32;;;13.70;92.90;;;;;;924765;149;27414;-74
2023/03/26 13:01:05;;;;;;;1.10;1.00;;;13.80;94.30;;;;;;926085;149;27477;-74
2023/03/26 13:04:08;;;;;;;2.40;1.00;;;13.90;94.20;;;;;;927198;149;27300;-74
2023/03/26 13:06:52;;;;;;;1.07;1.00;;;14.10;93.40;;;;;;926678;149;27820;-74
2023/03/26 13:09:37;;;;;;;0.83;0.83;;;14.20;92.90;;;;;;926534;149;27430;-74